Terminal Aerodrome Forecast
Issued by NWS

Home | Current Version | Previous Version | Text Only | Print | Product List | Glossary On
Versions: 1 2 3 4 5 6 7 8 9 10 11 12 13 14 15 16 17 18 19 20 21 22 23 24 25 26
000
FTAK31 PANC 311731
TAFASD
TAF
PASD 311731Z 3118/0118 14008KT P6SM VCSH SCT008 BKN035 OVC080
     FM010200 11007KT P6SM -RA OVC015
     FM011200 VRB06KT 6SM -RA BR OVC010
      AMD LTD TO CLD VIS AND WIND=

USA.gov is the U.S. government's official web portal to all federal, state and local government web resources and services.